createdAt,value
2022-10-17T00:01:07.709Z,3.83
2022-10-17T00:03:38.304Z,2.63
2022-10-17T00:06:08.158Z,2.60
2022-10-17T00:08:36.687Z,4.87
2022-10-17T00:11:07.137Z,6.83
2022-10-17T00:13:35.916Z,5.83
2022-10-17T00:16:04.161Z,3.20
2022-10-17T00:18:33.275Z,4.03
2022-10-17T00:21:02.764Z,4.10
2022-10-17T00:23:31.219Z,7.37
2022-10-17T00:26:00.678Z,4.20
2022-10-17T00:28:29.101Z,3.47
2022-10-17T00:30:58.785Z,3.30
2022-10-17T00:33:27.161Z,5.10
2022-10-17T00:36:05.949Z,3.20
2022-10-17T00:38:34.950Z,5.63
2022-10-17T00:41:03.445Z,2.67
2022-10-17T00:43:50.232Z,3.40
2022-10-17T00:46:18.638Z,6.10
2022-10-17T00:48:49.623Z,3.53
2022-10-17T00:51:21.782Z,2.90
2022-10-17T00:53:51.843Z,3.20
2022-10-17T00:56:21.750Z,2.30
2022-10-17T00:58:50.065Z,5.93
2022-10-17T01:01:18.460Z,3.40
2022-10-17T01:03:46.845Z,3.53
2022-10-17T01:06:15.192Z,3.47
2022-10-17T01:08:44.860Z,3.37
2022-10-17T01:11:23.437Z,3.77
2022-10-17T01:13:58.149Z,3.90
2022-10-17T01:16:37.900Z,4.17
2022-10-17T01:19:26.683Z,4.50
2022-10-17T01:22:00.811Z,7.30
2022-10-17T01:25:00.469Z,3.27
2022-10-17T01:27:55.212Z,3.20
2022-10-17T01:31:00.324Z,3.17
2022-10-17T01:33:45.086Z,3.00
2022-10-17T01:36:20.306Z,2.63
2022-10-17T01:38:51.731Z,3.53
2022-10-17T01:41:28.600Z,4.27
2022-10-17T01:44:00.976Z,4.10
2022-10-17T01:46:35.876Z,4.33
2022-10-17T01:49:06.950Z,3.70
2022-10-17T01:51:39.562Z,4.73
2022-10-17T01:54:13.013Z,4.60
2022-10-17T01:56:43.654Z,3.73
2022-10-17T01:59:15.438Z,3.87
2022-10-17T02:01:47.002Z,4.50
2022-10-17T02:04:16.452Z,3.73
2022-10-17T02:06:44.696Z,3.80
2022-10-17T02:09:23.576Z,4.30
2022-10-17T02:12:02.576Z,4.73
2022-10-17T02:14:44.345Z,3.73
2022-10-17T02:17:24.539Z,7.63
2022-10-17T02:20:02.839Z,3.13
2022-10-17T02:22:38.809Z,3.27
2022-10-17T02:25:15.770Z,3.47
2022-10-17T02:27:49.091Z,2.80
2022-10-17T02:30:27.450Z,5.43
2022-10-17T02:33:01.579Z,8.00
2022-10-17T02:35:37.802Z,6.70
2022-10-17T02:38:09.046Z,3.90
2022-10-17T02:40:39.103Z,3.80
2022-10-17T02:43:08.648Z,7.97
2022-10-17T02:45:38.753Z,3.93
2022-10-17T02:48:13.366Z,3.70
2022-10-17T02:50:52.651Z,4.03
2022-10-17T02:53:29.114Z,4.30
2022-10-17T02:56:02.645Z,7.40
2022-10-17T02:58:34.531Z,3.83
2022-10-17T03:01:03.005Z,4.70
2022-10-17T03:03:33.763Z,3.90
2022-10-17T03:06:03.255Z,3.37
2022-10-17T03:08:31.512Z,3.50
2022-10-17T03:11:01.676Z,4.30
2022-10-17T03:13:33.881Z,2.60
2022-10-17T03:16:06.312Z,4.13
2022-10-17T03:18:35.980Z,3.00
2022-10-17T03:21:05.420Z,5.20
2022-10-17T03:23:33.539Z,3.40
2022-10-17T03:26:04.899Z,3.13
2022-10-17T03:28:36.200Z,3.60
2022-10-17T03:31:08.357Z,3.70
2022-10-17T03:33:39.095Z,2.93
2022-10-17T03:36:08.290Z,4.60
2022-10-17T03:38:36.856Z,2.50
2022-10-17T03:41:05.684Z,3.23
2022-10-17T03:43:34.575Z,3.00
2022-10-17T03:46:03.401Z,3.83
2022-10-17T03:48:32.774Z,3.63
2022-10-17T03:51:05.236Z,3.93
2022-10-17T03:53:36.340Z,4.13
2022-10-17T03:56:13.939Z,3.33
2022-10-17T03:58:43.148Z,4.70
2022-10-17T04:01:14.337Z,4.63
2022-10-17T04:03:45.226Z,3.30
2022-10-17T04:06:14.824Z,3.73
2022-10-17T04:08:45.973Z,4.53
2022-10-17T04:11:20.768Z,3.27
2022-10-17T04:13:54.477Z,5.37
2022-10-17T04:16:22.925Z,4.40
2022-10-17T04:19:01.405Z,11.70
2022-10-17T04:21:35.139Z,4.13
2022-10-17T04:24:07.574Z,5.00
2022-10-17T04:27:00.297Z,5.37
2022-10-17T04:29:31.379Z,5.30
2022-10-17T04:32:07.419Z,3.27
2022-10-17T04:34:45.850Z,3.23
2022-10-17T04:37:15.555Z,4.47
2022-10-17T04:39:45.459Z,3.27
2022-10-17T04:42:13.696Z,9.70
2022-10-17T04:44:42.361Z,6.27
2022-10-17T04:47:11.013Z,7.03
2022-10-17T04:52:11.926Z,10.30
2022-10-17T04:54:48.801Z,8.63
2022-10-17T04:57:17.228Z,14.03
2022-10-17T04:59:53.531Z,12.60
2022-10-17T05:02:27.793Z,8.50
2022-10-17T05:04:56.677Z,8.00
2022-10-17T05:07:25.799Z,7.77
2022-10-17T05:10:03.648Z,7.37
2022-10-17T05:12:33.181Z,5.73
2022-10-17T05:15:01.342Z,5.10
2022-10-17T05:17:30.463Z,8.57
2022-10-17T05:19:59.037Z,7.67
2022-10-17T05:22:27.502Z,6.43
2022-10-17T05:24:57.905Z,7.37
2022-10-17T05:27:27.581Z,8.30
2022-10-17T05:29:56.093Z,9.80
2022-10-17T05:32:31.001Z,11.23
2022-10-17T05:35:00.067Z,10.33
2022-10-17T05:37:30.564Z,13.70
2022-10-17T05:39:58.891Z,14.43
2022-10-17T05:42:29.334Z,22.43
2022-10-17T05:44:58.681Z,17.40
2022-10-17T05:47:28.537Z,16.37
2022-10-17T05:49:57.119Z,20.67
2022-10-17T05:52:32.461Z,16.60
2022-10-17T05:55:08.992Z,15.57
2022-10-17T05:57:38.717Z,21.67
2022-10-17T06:00:11.840Z,19.23
2022-10-17T06:02:42.858Z,21.40
2022-10-17T06:05:14.341Z,16.53
2022-10-17T06:07:43.365Z,17.23
2022-10-17T06:10:15.064Z,18.00
2022-10-17T06:12:44.853Z,20.93
2022-10-17T06:15:13.391Z,20.03
2022-10-17T06:17:45.015Z,19.70
2022-10-17T06:20:13.169Z,17.83
2022-10-17T06:22:41.278Z,21.07
2022-10-17T06:25:15.384Z,17.90
2022-10-17T06:27:44.877Z,19.60
2022-10-17T06:30:14.085Z,21.30
2022-10-17T06:32:42.801Z,19.90
2022-10-17T06:35:12.022Z,20.00
2022-10-17T06:37:42.154Z,21.03
2022-10-17T06:40:12.309Z,17.97
2022-10-17T06:42:41.170Z,17.60
2022-10-17T06:45:25.949Z,18.30
2022-10-17T06:48:09.624Z,18.13
2022-10-17T06:50:45.548Z,16.70
2022-10-17T06:53:17.900Z,16.87
2022-10-17T06:56:05.483Z,15.33
2022-10-17T06:58:50.803Z,16.43
2022-10-17T07:01:34.253Z,15.90
2022-10-17T07:04:04.608Z,16.33
2022-10-17T07:06:33.228Z,15.93
2022-10-17T07:09:07.730Z,14.80
2022-10-17T07:11:38.230Z,14.90
2022-10-17T07:14:06.841Z,15.33
2022-10-17T07:16:36.451Z,14.23
2022-10-17T07:19:19.263Z,14.30
2022-10-17T07:21:47.605Z,17.53
2022-10-17T07:24:16.855Z,16.40
2022-10-17T07:26:49.541Z,15.53
2022-10-17T07:29:18.248Z,13.23
2022-10-17T07:32:08.479Z,14.63
2022-10-17T07:34:37.194Z,15.37
2022-10-17T07:37:07.452Z,17.00
2022-10-17T07:39:36.579Z,13.60
2022-10-17T07:42:07.457Z,12.93
2022-10-17T07:44:36.562Z,14.30
2022-10-17T07:47:06.468Z,13.17
2022-10-17T07:49:42.392Z,15.00
2022-10-17T07:52:11.949Z,18.80
2022-10-17T07:54:40.374Z,12.73
2022-10-17T07:57:08.942Z,14.60
2022-10-17T07:59:39.093Z,14.10
2022-10-17T08:02:15.150Z,15.07
2022-10-17T08:04:43.348Z,11.63
2022-10-17T08:07:20.023Z,15.77
2022-10-17T08:09:51.305Z,18.23
2022-10-17T08:12:19.577Z,10.50
2022-10-17T08:14:48.166Z,12.73
2022-10-17T08:17:17.665Z,10.90
2022-10-17T08:19:45.822Z,11.17
2022-10-17T08:22:13.981Z,11.87
2022-10-17T08:24:42.816Z,12.27
2022-10-17T08:27:13.121Z,12.47
2022-10-17T08:29:41.828Z,10.70
2022-10-17T08:32:10.471Z,9.73
2022-10-17T08:34:40.014Z,9.60
2022-10-17T08:37:08.249Z,9.17
2022-10-17T08:39:36.428Z,8.60
2022-10-17T08:42:23.553Z,7.80
2022-10-17T08:45:01.871Z,9.17
2022-10-17T08:47:36.058Z,8.13
2022-10-17T08:50:07.975Z,10.63
2022-10-17T08:52:40.590Z,7.23
2022-10-17T08:55:16.385Z,7.57
2022-10-17T08:57:44.792Z,9.00
2022-10-17T09:00:18.156Z,10.10
2022-10-17T09:02:58.532Z,8.20
2022-10-17T09:05:35.784Z,5.30
2022-10-17T09:08:12.440Z,6.20
2022-10-17T09:10:53.510Z,6.23
2022-10-17T09:16:38.236Z,7.13
2022-10-17T09:19:13.461Z,5.70
2022-10-17T09:21:48.471Z,5.43
2022-10-17T09:24:22.440Z,5.47
2022-10-17T09:26:52.157Z,6.13
2022-10-17T09:29:24.103Z,5.33
2022-10-17T09:32:04.372Z,5.10
2022-10-17T09:34:33.710Z,4.53
2022-10-17T09:37:03.857Z,6.30
2022-10-17T09:39:33.072Z,6.10
2022-10-17T09:42:03.210Z,4.63
2022-10-17T09:44:34.014Z,3.73
2022-10-17T09:47:23.453Z,6.23
2022-10-17T09:49:51.699Z,3.97
2022-10-17T09:52:26.466Z,6.03
2022-10-17T09:54:58.853Z,4.87
2022-10-17T09:57:27.452Z,4.57
2022-10-17T10:00:00.889Z,4.40
2022-10-17T10:02:31.222Z,4.40
2022-10-17T10:05:05.146Z,6.07
2022-10-17T10:07:37.624Z,4.00
2022-10-17T10:10:08.469Z,4.03
2022-10-17T10:12:39.631Z,4.40
2022-10-17T10:15:32.113Z,4.93
2022-10-17T10:18:00.404Z,5.47
2022-10-17T10:20:32.384Z,5.40
2022-10-17T10:23:17.289Z,6.13
2022-10-17T10:25:55.832Z,5.73
2022-10-17T10:28:28.110Z,6.43
2022-10-17T10:30:58.074Z,5.07
2022-10-17T10:33:28.620Z,7.27
2022-10-17T10:35:58.765Z,7.93
2022-10-17T10:38:28.805Z,6.33
2022-10-17T10:41:02.437Z,6.50
2022-10-17T10:43:35.761Z,5.60
2022-10-17T10:46:07.348Z,10.93
2022-10-17T10:48:37.197Z,5.97
2022-10-17T10:51:09.184Z,5.53
2022-10-17T10:53:45.339Z,5.50
2022-10-17T10:56:18.267Z,6.07
2022-10-17T10:58:56.517Z,5.70
2022-10-17T11:01:31.396Z,6.53
2022-10-17T11:04:19.077Z,4.60
2022-10-17T11:06:50.313Z,5.80
2022-10-17T11:09:31.419Z,6.30
2022-10-17T11:12:07.892Z,7.47
2022-10-17T11:14:44.959Z,6.30
2022-10-17T11:17:24.121Z,10.40
2022-10-17T11:20:00.391Z,5.83
2022-10-17T11:22:33.086Z,4.83
2022-10-17T11:25:15.404Z,6.07
2022-10-17T11:27:43.659Z,5.50
2022-10-17T11:30:14.799Z,7.73
2022-10-17T11:32:46.752Z,5.83
2022-10-17T11:35:21.822Z,9.43
2022-10-17T11:37:54.993Z,5.30
2022-10-17T11:40:33.806Z,6.23
2022-10-17T11:43:05.886Z,6.60
2022-10-17T11:45:40.214Z,6.10
2022-10-17T11:48:14.676Z,5.53
2022-10-17T11:53:51.629Z,10.77
2022-10-17T11:56:28.594Z,6.37
2022-10-17T11:59:06.777Z,5.53
2022-10-17T12:01:39.987Z,6.60
2022-10-17T12:04:20.782Z,6.10
2022-10-17T12:07:01.030Z,6.23
2022-10-17T12:09:40.790Z,7.73
2022-10-17T12:12:10.649Z,6.77
2022-10-17T12:14:43.535Z,6.53
2022-10-17T12:17:30.636Z,5.83
2022-10-17T12:20:25.159Z,6.17
2022-10-17T12:22:55.257Z,6.20
2022-10-17T12:25:29.787Z,6.03
2022-10-17T12:28:13.533Z,6.43
2022-10-17T12:30:58.521Z,5.57
2022-10-17T12:33:34.611Z,8.83
2022-10-17T12:36:46.710Z,5.73
2022-10-17T12:39:54.069Z,6.43
2022-10-17T12:42:48.579Z,6.37
2022-10-17T12:45:51.350Z,7.07
2022-10-17T12:49:00.109Z,7.83
2022-10-17T12:51:37.897Z,8.60
2022-10-17T12:54:13.227Z,6.13
2022-10-17T12:56:43.933Z,6.93
2022-10-17T12:59:16.830Z,6.73
2022-10-17T13:01:49.507Z,6.23
2022-10-17T13:04:18.790Z,6.57
2022-10-17T13:06:49.700Z,6.07
2022-10-17T13:09:26.021Z,6.37
2022-10-17T13:11:55.050Z,8.57
2022-10-17T13:14:24.437Z,5.80
2022-10-17T13:16:56.851Z,8.30
2022-10-17T13:19:26.992Z,7.47
2022-10-17T13:21:59.856Z,7.87
2022-10-17T13:24:34.347Z,5.17
2022-10-17T13:27:03.271Z,12.17
2022-10-17T13:29:32.792Z,6.87
2022-10-17T13:32:04.764Z,7.30
2022-10-17T13:34:34.735Z,6.80
2022-10-17T13:37:06.000Z,7.93
2022-10-17T13:39:54.398Z,6.30
2022-10-17T13:42:27.230Z,5.43
2022-10-17T13:44:56.770Z,10.23
2022-10-17T13:47:29.346Z,5.50
2022-10-17T13:49:59.050Z,6.97
2022-10-17T13:52:30.899Z,5.13
2022-10-17T13:55:11.733Z,5.37
2022-10-17T13:57:41.711Z,4.93
2022-10-17T14:00:19.296Z,7.17
2022-10-17T14:02:49.840Z,7.93
2022-10-17T14:05:20.522Z,5.10
2022-10-17T14:10:43.212Z,8.93
2022-10-17T14:13:21.909Z,6.67
2022-10-17T14:15:51.171Z,5.00
2022-10-17T14:18:25.357Z,6.73
2022-10-17T14:23:44.337Z,9.20
2022-10-17T14:26:16.469Z,6.27
2022-10-17T14:28:47.058Z,6.47
2022-10-17T14:31:32.102Z,5.00
2022-10-17T14:34:03.807Z,6.67
2022-10-17T14:36:35.690Z,5.73
2022-10-17T14:39:09.479Z,4.60
2022-10-17T14:41:45.343Z,7.57
2022-10-17T14:44:26.821Z,6.53
2022-10-17T14:46:59.359Z,6.37
2022-10-17T14:49:38.018Z,6.10
2022-10-17T14:52:27.616Z,6.00
2022-10-17T14:54:56.497Z,7.13
2022-10-17T14:57:28.409Z,9.90
2022-10-17T14:59:57.820Z,6.00
2022-10-17T15:02:27.292Z,6.60
2022-10-17T15:04:57.162Z,7.33
2022-10-17T15:07:25.377Z,7.77
2022-10-17T15:09:54.543Z,11.00
2022-10-17T15:12:25.703Z,5.67
2022-10-17T15:14:54.724Z,7.43
2022-10-17T15:17:25.693Z,8.27
2022-10-17T15:19:54.237Z,7.10
2022-10-17T15:22:24.501Z,10.90
2022-10-17T15:24:53.034Z,6.00
2022-10-17T15:27:23.690Z,7.20
2022-10-17T15:29:52.988Z,6.23
2022-10-17T15:32:21.384Z,7.77
2022-10-17T15:34:49.745Z,6.97
2022-10-17T15:37:21.957Z,6.73
2022-10-17T15:39:54.299Z,6.93
2022-10-17T15:42:23.784Z,7.90
2022-10-17T15:44:51.940Z,6.77
2022-10-17T15:47:25.366Z,7.20
2022-10-17T15:49:54.208Z,6.73
2022-10-17T15:52:23.008Z,8.80
2022-10-17T15:54:52.836Z,6.83
2022-10-17T15:57:23.567Z,7.80
2022-10-17T15:59:52.573Z,7.10
2022-10-17T16:02:22.902Z,9.60
2022-10-17T16:04:52.595Z,8.60
2022-10-17T16:07:21.682Z,8.63
2022-10-17T16:09:49.867Z,13.73
2022-10-17T16:14:56.636Z,14.37
2022-10-17T16:17:24.804Z,14.20
2022-10-17T16:19:53.062Z,12.40
2022-10-17T16:22:30.043Z,11.67
2022-10-17T16:25:07.389Z,11.23
2022-10-17T16:27:37.867Z,10.67
2022-10-17T16:30:07.900Z,9.77
2022-10-17T16:32:36.092Z,10.40
2022-10-17T16:35:04.956Z,11.47
2022-10-17T16:37:33.116Z,10.40
2022-10-17T16:40:01.220Z,11.87
2022-10-17T16:42:29.673Z,10.37
2022-10-17T16:44:59.482Z,11.77
2022-10-17T16:47:27.660Z,12.47
2022-10-17T16:49:56.270Z,9.50
2022-10-17T16:52:24.461Z,8.40
2022-10-17T16:54:53.151Z,12.13
2022-10-17T16:57:21.366Z,10.20
2022-10-17T16:59:49.578Z,9.60
2022-10-17T17:02:21.278Z,12.00
2022-10-17T17:04:49.888Z,9.67
2022-10-17T17:07:19.640Z,10.33
2022-10-17T17:09:47.904Z,12.70
2022-10-17T17:12:16.358Z,9.23
2022-10-17T17:14:44.529Z,9.47
2022-10-17T17:17:19.675Z,9.70
2022-10-17T17:20:00.167Z,9.60
2022-10-17T17:22:28.328Z,9.20
2022-10-17T17:24:56.781Z,10.40
2022-10-17T17:27:25.183Z,10.50
2022-10-17T17:29:53.659Z,9.37
2022-10-17T17:32:21.832Z,8.77
2022-10-17T17:34:49.988Z,9.73
2022-10-17T17:37:19.508Z,9.60
2022-10-17T17:39:47.696Z,10.60
2022-10-17T17:42:15.921Z,8.43
2022-10-17T17:44:45.085Z,11.90
2022-10-17T17:47:13.287Z,9.30
2022-10-17T17:49:41.535Z,9.30
2022-10-17T17:52:09.731Z,11.50
2022-10-17T17:54:40.955Z,12.27
2022-10-17T17:57:09.339Z,10.10
2022-10-17T17:59:39.085Z,14.57
2022-10-17T18:02:08.837Z,9.43
2022-10-17T18:04:37.085Z,10.47
2022-10-17T18:07:05.619Z,11.10
2022-10-17T18:09:33.797Z,11.20
2022-10-17T18:12:03.274Z,11.07
2022-10-17T18:14:31.434Z,10.53
2022-10-17T18:16:59.595Z,13.03
2022-10-17T18:19:28.300Z,10.57
2022-10-17T18:21:56.565Z,10.57
2022-10-17T18:24:24.742Z,10.50
2022-10-17T18:26:56.031Z,12.33
2022-10-17T18:29:25.551Z,10.70
2022-10-17T18:31:53.672Z,11.43
2022-10-17T18:34:21.962Z,12.77
2022-10-17T18:36:50.845Z,20.70
2022-10-17T18:39:19.121Z,14.37
2022-10-17T18:41:47.448Z,14.87
2022-10-17T18:44:16.834Z,12.60
2022-10-17T18:46:46.935Z,13.43
2022-10-17T18:49:19.513Z,13.03
2022-10-17T18:51:48.000Z,15.47
2022-10-17T18:54:20.381Z,13.73
2022-10-17T18:56:49.968Z,13.30
2022-10-17T18:59:18.374Z,13.33
2022-10-17T19:01:48.370Z,15.20
2022-10-17T19:04:16.852Z,12.90
2022-10-17T19:06:45.450Z,17.87
2022-10-17T19:09:15.097Z,14.13
2022-10-17T19:11:44.012Z,12.97
2022-10-17T19:14:14.025Z,12.77
2022-10-17T19:16:44.152Z,18.03
2022-10-17T19:19:16.311Z,13.40
2022-10-17T19:21:45.337Z,15.97
2022-10-17T19:24:15.251Z,15.93
2022-10-17T19:26:44.527Z,15.37
2022-10-17T19:29:15.340Z,14.70
2022-10-17T19:31:44.348Z,17.10
2022-10-17T19:34:14.992Z,15.90
2022-10-17T19:36:43.726Z,13.73
2022-10-17T19:39:13.987Z,15.00
2022-10-17T19:41:43.042Z,15.70
2022-10-17T19:44:11.677Z,16.20
2022-10-17T19:46:40.068Z,14.63
2022-10-17T19:49:08.683Z,18.43
2022-10-17T19:51:38.153Z,18.40
2022-10-17T19:54:06.315Z,18.37
2022-10-17T19:56:37.663Z,20.93
2022-10-17T19:59:07.109Z,19.43
2022-10-17T20:01:38.766Z,15.57
2022-10-17T20:04:07.434Z,15.40
2022-10-17T20:06:36.161Z,18.10
2022-10-17T20:09:06.877Z,20.00
2022-10-17T20:11:36.381Z,18.03
2022-10-17T20:14:04.529Z,17.03
2022-10-17T20:16:34.398Z,15.43
2022-10-17T20:19:08.350Z,17.37
2022-10-17T20:21:39.418Z,15.43
2022-10-17T20:24:12.048Z,18.63
2022-10-17T20:26:40.429Z,16.83
2022-10-17T20:29:12.526Z,19.17
2022-10-17T20:31:42.394Z,16.13
2022-10-17T20:34:13.964Z,17.07
2022-10-17T20:36:42.145Z,18.33
2022-10-17T20:39:13.321Z,20.30
2022-10-17T20:41:41.863Z,23.27
2022-10-17T20:44:10.500Z,17.43
2022-10-17T20:46:44.778Z,16.23
2022-10-17T20:49:18.780Z,17.67
2022-10-17T20:51:47.181Z,20.67
2022-10-17T20:54:16.784Z,17.63
2022-10-17T20:56:46.291Z,19.13
2022-10-17T20:59:17.019Z,17.50
2022-10-17T21:01:46.188Z,19.40
2022-10-17T21:04:44.730Z,17.80
2022-10-17T21:07:03.407Z,17.80
2022-10-17T21:09:32.995Z,17.70
2022-10-17T21:14:36.393Z,19.33
2022-10-17T21:17:05.583Z,19.37
2022-10-17T21:19:34.157Z,22.20
2022-10-17T21:22:02.545Z,19.70
2022-10-17T21:24:33.174Z,22.53
2022-10-17T21:27:01.347Z,19.63
2022-10-17T21:29:29.592Z,17.70
2022-10-17T21:31:57.710Z,20.37
2022-10-17T21:34:26.280Z,18.30
2022-10-17T21:36:54.533Z,18.87
2022-10-17T21:39:24.178Z,19.70
2022-10-17T21:41:54.391Z,17.53
2022-10-17T21:44:24.266Z,18.60
2022-10-17T21:46:52.805Z,23.33
2022-10-17T21:49:23.327Z,19.23
2022-10-17T21:51:52.823Z,20.67
2022-10-17T21:54:22.923Z,20.13
2022-10-17T21:56:51.900Z,23.23
2022-10-17T21:59:21.365Z,19.70
2022-10-17T22:01:49.868Z,21.30
2022-10-17T22:04:20.242Z,23.33
2022-10-17T22:06:51.410Z,21.13
2022-10-17T22:09:25.478Z,21.43
2022-10-17T22:11:55.676Z,23.67
2022-10-17T22:14:27.321Z,25.00
2022-10-17T22:16:56.163Z,20.17
2022-10-17T22:19:27.584Z,21.17
2022-10-17T22:21:56.140Z,21.87
2022-10-17T22:24:24.278Z,21.10
2022-10-17T22:26:52.711Z,20.77
2022-10-17T22:29:21.019Z,20.23
2022-10-17T22:31:50.736Z,19.77
2022-10-17T22:34:19.664Z,27.43
2022-10-17T22:36:48.886Z,22.20
2022-10-17T22:39:17.121Z,20.27
2022-10-17T22:41:45.319Z,21.57
2022-10-17T22:44:13.763Z,20.40
2022-10-17T22:46:42.012Z,23.73
2022-10-17T22:49:11.515Z,28.73
2022-10-17T22:51:39.659Z,21.70
2022-10-17T22:54:07.886Z,22.63
2022-10-17T22:56:36.037Z,21.93
2022-10-17T22:59:04.769Z,27.57
2022-10-17T23:01:33.051Z,27.50
2022-10-17T23:04:01.297Z,26.50
2022-10-17T23:06:30.917Z,28.00
2022-10-17T23:08:59.078Z,28.40
2022-10-17T23:11:27.222Z,25.60
2022-10-17T23:13:55.399Z,32.30
2022-10-17T23:16:23.912Z,30.07
2022-10-17T23:18:52.055Z,28.87
2022-10-17T23:21:20.180Z,27.53
2022-10-17T23:23:49.805Z,26.03
2022-10-17T23:26:17.926Z,29.10
2022-10-17T23:28:46.127Z,37.07
2022-10-17T23:31:16.793Z,34.33
2022-10-17T23:33:46.195Z,35.70
2022-10-17T23:36:16.132Z,32.60
2022-10-17T23:38:45.943Z,35.43
2022-10-17T23:41:16.037Z,41.93
2022-10-17T23:43:44.778Z,39.30
2022-10-17T23:46:13.626Z,44.80
2022-10-17T23:48:41.815Z,44.80
2022-10-17T23:51:11.905Z,44.47
2022-10-17T23:53:41.224Z,49.30
2022-10-17T23:56:11.337Z,45.20
2022-10-17T23:58:41.084Z,41.13
